Latest Observation

25 Stations

15 Minute Data | America/Los_Angeles
as of 9/2/26 10:03 AM PDT
Station Date Time Temp (°F) RH (%) Dew Pt (°F) Wind Spd (mph) Wind Dir (°) Wind Gust (mph) Latest Rain (In) Daily Rain (In) Daily Min Temp (°F) Daily Max Temp (°F)
Rockpile Upper (Cooley) 9/2/26 1000 56.4   0.8 100   10 56.4   3.8 3.0   0.3 S | 190 6.1   0.7 0.00 0.10 51.6   0.3 58.3   1.4
Rockpile Lower (Cooley) 9/2/26 0945 60.6   2.7 99   16 60.3   7.7 1.9   0.6 SSE | 150 4.5   0.7 0.00 0.12 54.6   0.4 61.1   1.3
Cloverdale-East (Ranch 83) 9/2/26 1000 62.8   1.0 - - 3.1   0.2 SSE | 167 8.1   2.0 0.00 0.06 55.1   0.2 64.3   0.8
Cloverdale-SE (Ranch 38) 9/2/26 1000 59.9   2.4 97   22 59.2   4.6 6.6   3.4 SSE | 160 10.8   2.4 0.00 0.06 56.5   0.9 60.3   4.1
Geyserville-North (Hoffman) 9/2/26 1000 61.7   4.3 96   26 60.4   4.5 2.9   1.3 ESE | 114 7.0   3.0 0.00 0.00 59.0   6.9 62.2   6.8
Geyserville (Ranch 3) 9/2/26 1000 61.3   4.7 100   35 61.3   7.5 3.2   1.6 E | 99 6.9   2.7 0.00 0.09 58.8   6.0 61.9   5.9
Geyserville-East (Ranch 40) 9/2/26 1000 58.9   5.3 98   27 58.5   3.6 7.3   2.6 S | 170 10.5   0.0 0.00 0.08 57.1   4.5 59.2   8.0
Geyserville-South (Nervo Station) 9/2/26 1000 61.1   2.9 - - 3.3   2.2 SSE | 167 6.4   3.0 0.00 0.14 57.8   3.8 61.5   3.5
Peterson (Ranch 09) 9/2/26 1000 60.8   2.0 94   22 59.2   5.4 2.7   1.2 SSE | 161 5.0   0.7 0.00 0.13 57.8   7.9 61.1   3.3
Crazy Creek Ranch 9/2/26 1000 61.6   4.0 97   25 60.7   4.6 2.1   0.6 SE | 127 4.8   0.0 0.00 0.15 59.4   9.7 61.8   3.9
Whitton Ranch (201e) 9/2/26 1000 61.9   3.9 97   27 61.1   5.2 3.5   1.2 SE | 140 6.8   2.0 0.00 0.18 58.1   12.1 62.4   4.0
Lytton East (Shop Hill Bottom) 9/2/26 1000 61.8   3.6 93   28 59.7   6.6 4.0   2.6 SSE | 150 7.1   3.6 0.00 0.18 58.2   10.3 62.0   4.7
Lytton East (Hill 5) 9/2/26 1000 61.3   3.7 95   28 60.0   6.0 5.2   2.2 S | 175 8.4   2.6 0.00 0.17 57.9   5.8 61.8   4.9
Lytton West Lower (Lew 6) 9/2/26 1000 61.7   3.9 93   29 59.8   6.5 3.6   1.2 SSE | 164 6.9   2.5 0.00 0.19 58.0   10.6 62.1   3.9
Lytton West Hill (23PS) 9/2/26 1000 61.7   4.8 95   33 60.3   7.0 3.1   1.1 SE | 135 6.2   1.0 0.00 0.17 58.4   5.3 62.0   5.8
Big River 9/2/26 1000 61.3   2.8 97   24 60.4   5.2 3.1   0.9 SSE | 164 5.6   0.4 0.00 0.19 58.0   6.1 61.7   3.7
Jimtown-North (Piccolo Ranch 15) 9/2/26 1000 61.8   1.4 100   28 61.8   7.9 1.2   1.0 SE | 128 4.4   0.4 0.00 0.15 56.6   7.8 62.4   2.0
HWY 128/Chalk Hill Rd (Landslide) 9/2/26 1000 62.3   1.6 91   20 59.7   5.3 2.1   0.7 S | 172 5.2   0.9 0.00 0.18 56.1   7.6 62.6   2.0
N Chalk Hill Rd (Ranch 63) 9/2/26 1000 57.8   7.8 100   33 57.8   3.7 3.2   1.9 SSE | 155 6.0   1.6 0.00 0.19 53.3   5.6 58.3   8.2
Newman Knights Valley 8/18/26 0015 56.2   1.8 85   4 51.7   0.4 0.8   3.5 NE | 55 2.3   5.8 0.00 0.00 55.0   1.2 88.3   0.6
Knights Valley (Bavarian Lion) 9/2/26 1000 60.7   1.3 91   19 58.1   5.0 1.3   1.8 SE | 124 3.1   3.7 0.00 0.13 51.6   4.3 61.0   1.8
Red Tail 9/2/26 1000 62.0   0.4 88   11 58.6   3.4 2.0   0.9 S | 170 6.1   3.0 0.00 0.16 56.8   7.9 62.1   1.2
Franz Valley (Stornetta) 9/2/26 1000 61.6   0.5 91   13 58.9   4.6 2.4   0.3 SSE | 159 6.0   1.0 0.00 0.15 54.1   6.9 62.0   1.2
Upper Dry Creek Valley 9/2/26 1000 62.6   1.4 92   20 60.3   5.5 3.2   1.5 ESE | 115 6.8   1.4 0.00 0.08 54.7   4.6 63.2   1.7
Lower Dry Creek Valley 9/2/26 1000 62.5   4.4 98   37 62.0   8.8 4.2   3.8 ESE | 120 7.9   1.8 0.00 0.17 55.7   7.3 63.0   5.0
Max     62.8 100 62.0 7.3 - 10.8 0.00 0.19 59.4 64.3
Avg     61.1 96 59.8 3.3 - 6.5 0.00 - - -
Min     56.4 88 56.4 1.2 - 3.1 0.00 0.00 51.6 58.3